Time;durP1;ratioP1;P1;durP2;ratioP2;P2;SDS_P1;SDS_P2;PMS_P1;PMS_P2;Temp;Humidity;BMP_temperature;BMP_pressure;BME280_temperature;BME280_humidity;BME280_pressure;Samples;Min_cycle;Max_cycle;Signal;HPM_P1;HPM_P2
2022/10/31 00:01:22;;;;;;;4.63;1.63;;;;;;;25.45;44.46;101431.91;5015964;28;20065;-57
2022/10/31 00:03:49;;;;;;;5.75;1.40;;;;;;;25.42;44.48;101432.75;5015704;28;20471;-55
2022/10/31 00:06:18;;;;;;;4.38;1.17;;;;;;;25.41;44.63;101425.69;5015232;28;20030;-57
2022/10/31 00:08:55;;;;;;;3.53;0.93;;;;;;;25.39;44.66;101416.03;5015373;28;20449;-58
2022/10/31 00:11:24;;;;;;;3.78;1.17;;;;;;;25.41;44.52;101419.56;5015368;28;20102;-58
2022/10/31 00:13:52;;;;;;;4.00;1.15;;;;;;;25.40;44.71;101418.66;5015656;28;20030;-57
2022/10/31 00:16:23;;;;;;;6.10;1.20;;;;;;;25.43;44.24;101424.00;5015363;28;20037;-57
2022/10/31 00:18:52;;;;;;;5.80;1.17;;;;;;;25.42;44.34;101418.72;5015453;28;20117;-57
2022/10/31 00:21:22;;;;;;;5.20;1.67;;;;;;;25.36;44.54;101414.25;5015633;28;20528;-57
2022/10/31 00:23:50;;;;;;;3.70;1.23;;;;;;;25.36;44.61;101413.34;5015187;28;20085;-56
2022/10/31 00:26:19;;;;;;;7.68;1.98;;;;;;;25.38;44.56;101406.38;4998016;28;20030;-58
2022/10/31 00:28:48;;;;;;;4.80;1.30;;;;;;;25.36;44.22;101409.00;4997451;28;20471;-57
2022/10/31 00:31:16;;;;;;;4.40;1.10;;;;;;;25.38;44.54;101402.03;5015214;28;20498;-57
2022/10/31 00:33:45;;;;;;;6.18;1.40;;;;;;;25.39;44.47;101401.16;4997632;28;20026;-58
2022/10/31 00:36:16;;;;;;;4.93;1.48;;;;;;;25.33;44.61;101394.06;5014972;28;20515;-57
2022/10/31 00:38:44;;;;;;;5.03;1.27;;;;;;;25.36;44.41;101400.22;5014934;28;20072;-57
2022/10/31 00:41:14;;;;;;;5.22;1.65;;;;;;;25.39;44.54;101397.63;5014821;28;20022;-57
2022/10/31 00:43:43;;;;;;;7.15;1.38;;;;;;;25.37;44.54;101394.09;5014144;28;20106;-57
2022/10/31 00:46:12;;;;;;;4.85;1.48;;;;;;;25.37;44.51;101387.13;5014890;28;20080;-58
2022/10/31 00:48:41;;;;;;;8.68;1.80;;;;;;;25.37;44.25;101386.22;5014395;28;20029;-58
2022/10/31 00:51:10;;;;;;;7.72;1.80;;;;;;;25.32;44.40;101383.53;5014817;28;20495;-58
2022/10/31 00:53:38;;;;;;;4.25;1.38;;;;;;;25.33;44.26;101375.69;5014793;28;20501;-58
2022/10/31 00:56:07;;;;;;;4.20;1.15;;;;;;;25.34;44.73;101384.47;5014434;28;20034;-57
2022/10/31 00:58:36;;;;;;;4.88;1.33;;;;;;;25.31;44.33;101380.06;5014509;28;20057;-58
2022/10/31 01:01:04;;;;;;;4.75;1.38;;;;;;;25.34;44.25;101366.94;5014332;28;20487;-58
2022/10/31 01:03:34;;;;;;;5.88;1.40;;;;;;;25.31;44.45;101364.28;5014500;28;20041;-58
2022/10/31 01:06:07;;;;;;;4.47;1.35;;;;;;;25.27;44.37;101362.47;5014487;28;20033;-57
2022/10/31 01:08:36;;;;;;;5.32;1.65;;;;;;;25.31;44.66;101359.03;4997400;28;20472;-58
2022/10/31 01:11:09;;;;;;;4.68;1.20;;;;;;;25.29;44.47;101359.88;5014330;28;20026;-57
2022/10/31 01:13:38;;;;;;;2.97;1.25;;;;;;;25.26;44.60;101354.56;5014430;28;20521;-57
2022/10/31 01:16:08;;;;;;;4.80;1.17;;;;;;;25.29;44.44;101346.75;4996999;28;20036;-57
2022/10/31 01:18:36;;;;;;;5.15;1.40;;;;;;;25.26;44.56;101352.84;4997325;28;20033;-56
2022/10/31 01:21:06;;;;;;;4.53;1.27;;;;;;;25.31;44.53;101340.66;5014219;28;20038;-57
2022/10/31 01:23:35;;;;;;;6.40;1.50;;;;;;;25.28;44.34;101343.25;5014381;28;20411;-56
2022/10/31 01:26:07;;;;;;;5.75;1.40;;;;;;;25.25;44.49;101344.91;5014161;28;20114;-57
2022/10/31 01:28:37;;;;;;;4.18;1.13;;;;;;;25.24;44.54;101344.06;5014179;28;20030;-57
2022/10/31 01:31:08;;;;;;;5.18;1.50;;;;;;;25.27;44.60;101341.47;5013598;28;20025;-54
2022/10/31 01:33:36;;;;;;;5.20;1.40;;;;;;;25.22;44.55;101337.03;5014215;28;20100;-57
2022/10/31 01:36:16;;;;;;;3.88;1.20;;;;;;;25.23;44.54;101338.78;5013708;28;20029;-58
2022/10/31 01:38:46;;;;;;;4.57;1.30;;;;;;;25.28;44.18;101330.13;5013840;28;20407;-57
2022/10/31 01:41:17;;;;;;;4.40;1.10;;;;;;;25.25;44.37;101329.16;5013731;28;20505;-56
2022/10/31 01:43:56;;;;;;;2.97;1.10;;;;;;;25.23;44.63;101328.28;5014024;28;20022;-57
2022/10/31 01:46:29;;;;;;;4.00;1.08;;;;;;;25.18;44.56;101322.94;5013665;28;20030;-57
2022/10/31 01:48:58;;;;;;;4.35;1.00;;;;;;;25.23;44.26;101320.41;5013848;28;20022;-58
2022/10/31 01:51:31;;;;;;;3.63;1.15;;;;;;;25.16;44.70;101322.03;4996220;28;20475;-57
2022/10/31 01:54:03;;;;;;;4.80;1.15;;;;;;;25.18;44.37;101322.94;5013683;28;20087;-58
2022/10/31 01:56:32;;;;;;;3.95;0.90;;;;;;;25.18;44.47;101322.94;4995970;28;20040;-57
2022/10/31 01:59:01;;;;;;;5.28;1.38;;;;;;;25.17;44.54;101322.09;5013070;28;20025;-57
2022/10/31 02:01:28;;;;;;;4.75;1.02;;;;;;;25.14;44.56;101311.53;5013356;28;20022;-58
2022/10/31 02:03:57;;;;;;;3.95;1.00;;;;;;;25.17;44.60;101316.84;4996111;28;20471;-57
2022/10/31 02:06:45;;;;;;;4.40;1.00;;;;;;;25.12;44.51;101312.38;5013159;28;20092;-57
2022/10/31 02:09:14;;;;;;;4.63;1.20;;;;;;;25.18;44.56;101318.59;4996311;28;20046;-58
2022/10/31 02:11:43;;;;;;;3.40;1.30;;;;;;;25.18;44.33;101312.44;5013297;28;20029;-57
2022/10/31 02:14:12;;;;;;;3.03;0.80;;;;;;;25.13;44.67;101309.78;5014009;28;20116;-56
2022/10/31 02:16:40;;;;;;;4.18;1.40;;;;;;;25.11;44.43;101305.38;5012218;28;20037;-57
2022/10/31 02:19:10;;;;;;;4.53;1.42;;;;;;;25.10;44.40;101291.34;5012946;28;20034;-56
2022/10/31 02:21:54;;;;;;;3.78;0.80;;;;;;;25.02;44.59;101283.38;4996075;28;20053;-57
2022/10/31 02:25:01;;;;;;;2.58;0.82;;;;;;;24.99;44.87;101283.31;4995904;28;20394;-56
2022/10/31 02:28:07;;;;;;;2.92;1.00;;;;;;;25.10;44.62;101278.22;5004481;28;20038;-58
2022/10/31 02:31:14;;;;;;;4.38;1.08;;;;;;;25.09;44.30;101276.47;5002480;28;20471;-57
2022/10/31 02:34:01;;;;;;;1.58;0.55;;;;;;;25.16;44.30;101275.69;4995210;28;20049;-56
2022/10/31 02:36:33;;;;;;;3.60;0.93;;;;;;;25.13;44.21;101270.41;4987392;28;20049;-56
2022/10/31 02:39:19;;;;;;;4.32;1.08;;;;;;;25.07;44.34;101262.44;5013190;28;20072;-57
2022/10/31 02:41:53;;;;;;;3.88;1.10;;;;;;;25.05;44.62;101260.66;4995604;28;20033;-58
2022/10/31 02:44:25;;;;;;;3.30;1.00;;;;;;;25.02;44.45;101256.25;4995583;28;20025;-56
2022/10/31 02:47:09;;;;;;;2.95;0.63;;;;;;;25.03;44.53;101255.41;5013141;28;20034;-54
2022/10/31 02:49:41;;;;;;;3.10;0.70;;;;;;;25.07;44.63;101251.94;4995668;28;20030;-58
2022/10/31 02:52:29;;;;;;;5.60;1.10;;;;;;;25.00;44.83;101252.72;5013172;28;20058;-57
2022/10/31 02:54:58;;;;;;;3.03;0.60;;;;;;;24.99;44.75;101249.19;5012990;28;20033;-58
2022/10/31 02:57:32;;;;;;;3.47;1.25;;;;;;;25.00;44.60;101244.84;5012797;28;20387;-58
2022/10/31 03:00:10;;;;;;;4.15;0.88;;;;;;;24.93;44.69;101236.03;5012813;28;20034;-57
2022/10/31 03:03:16;;;;;;;1.73;0.70;;;;;;;24.96;44.72;101241.31;5013356;28;20030;-58
2022/10/31 03:06:05;;;;;;;3.05;0.90;;;;;;;25.00;44.54;101234.34;5002967;28;20121;-57
2022/10/31 03:08:58;;;;;;;3.63;0.90;;;;;;;25.00;44.38;101219.47;5016184;28;20042;-55
2022/10/31 03:11:34;;;;;;;3.22;1.17;;;;;;;24.97;44.45;101208.06;4997960;28;20045;-55
2022/10/31 03:14:18;;;;;;;2.97;0.93;;;;;;;24.97;44.52;101210.69;5016536;28;20029;-56
2022/10/31 03:16:48;;;;;;;2.92;1.13;;;;;;;24.93;44.72;101204.53;5016828;28;20096;-57
2022/10/31 03:19:21;;;;;;;2.58;0.90;;;;;;;24.93;44.40;101196.66;5016268;28;20030;-57
2022/10/31 03:21:53;;;;;;;4.07;0.90;;;;;;;24.95;44.52;101189.69;4999227;28;20037;-53
2022/10/31 03:24:23;;;;;;;2.00;0.80;;;;;;;24.91;44.60;101181.72;5016769;28;20059;-57
2022/10/31 03:26:54;;;;;;;2.58;0.80;;;;;;;24.92;44.59;101189.66;4999057;28;20062;-56
2022/10/31 03:29:26;;;;;;;2.67;0.85;;;;;;;24.91;44.73;101185.25;4998898;28;20475;-56
2022/10/31 03:32:01;;;;;;;2.75;0.98;;;;;;;24.89;44.93;101179.09;4999076;28;20113;-57
2022/10/31 03:34:30;;;;;;;2.95;0.93;;;;;;;24.90;44.60;101175.63;4998934;28;20034;-58
2022/10/31 03:37:01;;;;;;;2.13;0.65;;;;;;;24.90;44.82;101173.00;4998961;28;20040;-57
2022/10/31 03:39:30;;;;;;;6.40;1.13;;;;;;;24.90;44.69;101172.13;4998790;28;20026;-57
2022/10/31 03:42:04;;;;;;;2.47;0.70;;;;;;;24.86;44.63;101169.47;4998617;28;20112;-57
2022/10/31 03:44:34;;;;;;;3.03;0.80;;;;;;;24.91;44.70;101174.75;4998357;28;20395;-56
2022/10/31 03:47:02;;;;;;;3.28;1.10;;;;;;;24.89;44.68;101168.59;5016033;28;20037;-56
2022/10/31 03:49:31;;;;;;;3.60;1.15;;;;;;;24.89;44.23;101163.34;5015514;28;20052;-57
2022/10/31 03:52:22;;;;;;;4.40;1.02;;;;;;;24.93;44.52;101166.88;5015943;28;20033;-58
2022/10/31 03:54:57;;;;;;;2.97;0.70;;;;;;;24.87;44.55;101158.09;5015662;28;20112;-58
2022/10/31 03:57:28;;;;;;;4.50;1.13;;;;;;;24.89;44.52;101155.47;4998635;28;20021;-57
2022/10/31 04:00:16;;;;;;;3.45;0.77;;;;;;;24.85;44.94;101157.19;5015739;28;20104;-57
2022/10/31 04:02:51;;;;;;;3.28;0.70;;;;;;;24.87;44.38;101151.97;5016356;28;20164;-56
2022/10/31 04:05:20;;;;;;;3.08;0.77;;;;;;;24.93;44.44;101154.66;4998315;28;20493;-57
2022/10/31 04:07:52;;;;;;;2.75;0.90;;;;;;;24.88;44.72;101162.50;4994675;28;20046;-57
2022/10/31 04:10:21;;;;;;;3.20;0.80;;;;;;;24.85;44.55;101154.56;4994812;28;20062;-57
2022/10/31 04:12:52;;;;;;;3.67;1.00;;;;;;;24.83;44.32;101151.03;4994195;28;20058;-58
2022/10/31 04:15:22;;;;;;;2.75;0.95;;;;;;;24.87;44.30;101154.59;4994415;28;20057;-57
2022/10/31 04:17:52;;;;;;;2.55;0.82;;;;;;;24.87;44.33;101154.59;4995796;28;20038;-57
2022/10/31 04:20:29;;;;;;;2.35;0.77;;;;;;;24.84;44.46;101146.66;4995842;28;20065;-57
2022/10/31 04:22:58;;;;;;;6.53;0.70;;;;;;;24.93;44.44;101148.53;4995535;28;20081;-57
2022/10/31 04:25:25;;;;;;;2.45;0.80;;;;;;;24.90;44.60;101138.00;4995844;28;20042;-57
2022/10/31 04:27:54;;;;;;;4.60;0.77;;;;;;;24.85;44.83;101135.31;4995824;28;20032;-58
2022/10/31 04:30:22;;;;;;;3.03;0.70;;;;;;;24.85;44.38;101140.56;4995304;28;20533;-58
2022/10/31 04:32:51;;;;;;;2.30;0.57;;;;;;;24.96;44.41;101140.69;4995601;28;20038;-57
2022/10/31 04:35:19;;;;;;;2.28;1.08;;;;;;;25.01;44.14;101141.63;4995741;28;20026;-58
2022/10/31 04:37:48;;;;;;;2.20;0.82;;;;;;;24.96;44.26;101128.47;4995230;28;20434;-57
2022/10/31 04:40:16;;;;;;;2.38;0.88;;;;;;;24.94;44.42;101127.56;4995400;28;20061;-57
2022/10/31 04:42:45;;;;;;;3.72;1.05;;;;;;;24.97;44.31;101127.59;4995294;28;20022;-57
2022/10/31 04:45:13;;;;;;;2.70;0.90;;;;;;;24.86;44.39;101111.72;4995003;28;20392;-57
2022/10/31 04:47:41;;;;;;;2.35;0.70;;;;;;;24.89;44.54;101113.50;4995386;28;20030;-58
2022/10/31 04:50:09;;;;;;;2.58;0.77;;;;;;;24.83;44.62;101116.94;4995240;28;20049;-58
2022/10/31 04:52:42;;;;;;;3.08;0.90;;;;;;;24.78;44.76;101115.13;4994916;28;20026;-58
2022/10/31 04:55:11;;;;;;;1.67;0.43;;;;;;;24.77;44.63;101097.63;4995443;28;20037;-58
2022/10/31 04:57:44;;;;;;;2.28;0.85;;;;;;;24.79;44.64;101109.88;4995351;28;20022;-54
2022/10/31 05:00:14;;;;;;;3.50;0.70;;;;;;;24.78;44.59;101102.88;4994832;28;20093;-58
2022/10/31 05:02:47;;;;;;;2.17;0.68;;;;;;;24.82;44.50;101106.44;4994941;28;20379;-58
2022/10/31 05:05:16;;;;;;;3.55;1.20;;;;;;;24.80;44.86;101095.03;4994809;28;20034;-57
2022/10/31 05:07:46;;;;;;;3.35;1.00;;;;;;;24.76;44.76;101094.09;5008229;28;20053;-58
2022/10/31 05:10:18;;;;;;;1.92;0.52;;;;;;;24.70;44.88;101080.94;5014245;28;20061;-56
2022/10/31 05:12:49;;;;;;;3.20;0.90;;;;;;;24.76;44.50;101085.38;5014377;28;20498;-57
2022/10/31 05:15:19;;;;;;;2.38;0.77;;;;;;;24.80;44.30;101072.28;4996991;28;20040;-57
2022/10/31 05:17:47;;;;;;;4.18;1.25;;;;;;;24.80;44.52;101079.28;5014550;28;20022;-57
2022/10/31 05:20:17;;;;;;;4.30;0.90;;;;;;;24.78;44.48;101066.16;5014011;28;20084;-57
2022/10/31 05:22:47;;;;;;;4.32;0.77;;;;;;;24.79;44.54;101059.16;5014236;28;20383;-56
2022/10/31 05:25:16;;;;;;;3.67;0.98;;;;;;;24.77;44.38;101048.63;5014454;28;20025;-57
2022/10/31 05:27:47;;;;;;;1.83;0.73;;;;;;;24.79;44.41;101046.06;5014466;28;20422;-56
2022/10/31 05:30:18;;;;;;;2.00;0.70;;;;;;;24.71;44.77;101041.59;5013127;28;20064;-57
2022/10/31 05:32:48;;;;;;;1.92;0.73;;;;;;;24.75;44.64;101033.75;4996861;28;20053;-54
2022/10/31 05:35:19;;;;;;;2.10;0.50;;;;;;;24.73;44.60;101033.75;5013415;28;20026;-56
2022/10/31 05:37:47;;;;;;;2.25;0.60;;;;;;;24.74;44.56;101030.22;5014186;28;20411;-57
2022/10/31 05:40:17;;;;;;;2.67;1.10;;;;;;;24.75;44.64;101032.00;5013948;28;20030;-55
2022/10/31 05:42:46;;;;;;;3.38;1.00;;;;;;;24.80;44.54;101024.19;5014101;28;20489;-55
2022/10/31 05:45:17;;;;;;;3.40;0.90;;;;;;;24.77;44.47;101016.28;5013967;28;20431;-56
2022/10/31 05:47:52;;;;;;;3.08;0.60;;;;;;;24.77;44.75;101017.16;5013609;28;20026;-57
2022/10/31 05:50:19;;;;;;;;;;;;;;;24.89;44.33;101013.78;4996902;28;20022;-57
2022/10/31 05:52:48;;;;;;;6.20;1.00;;;;;;;24.85;44.03;101004.13;5013929;28;20016;-58
2022/10/31 05:55:15;;;;;;;3.63;0.90;;;;;;;24.79;44.54;101009.31;5013458;28;20021;-57
2022/10/31 05:57:43;;;;;;;2.13;0.70;;;;;;;24.70;44.47;100997.00;5013344;28;20022;-58
2022/10/31 06:00:11;;;;;;;3.85;0.90;;;;;;;24.73;44.61;100999.66;5013307;28;20101;-57
2022/10/31 06:02:40;;;;;;;3.65;1.08;;;;;;;24.67;44.67;100994.28;5014006;28;20022;-58
2022/10/31 06:05:07;;;;;;;1.40;0.73;;;;;;;24.68;44.56;100990.81;5013461;28;20472;-57
2022/10/31 06:07:36;;;;;;;1.73;0.55;;;;;;;24.75;44.40;100991.78;5012920;28;20042;-58
2022/10/31 06:10:06;;;;;;;3.58;0.52;;;;;;;24.72;44.66;100983.00;5013587;28;20105;-58
2022/10/31 06:12:37;;;;;;;2.45;0.60;;;;;;;24.71;44.68;100983.88;5014444;28;20053;-58
2022/10/31 06:15:06;;;;;;;2.03;0.63;;;;;;;24.68;44.48;100986.44;5013520;28;20387;-58
2022/10/31 06:17:35;;;;;;;2.78;0.80;;;;;;;24.63;44.61;100972.41;5013751;28;20479;-58
2022/10/31 06:20:04;;;;;;;2.00;0.80;;;;;;;24.55;44.51;100955.69;5013279;28;20101;-56
2022/10/31 06:22:32;;;;;;;3.17;0.80;;;;;;;24.63;44.51;100971.50;5013050;28;20534;-56
2022/10/31 06:25:01;;;;;;;3.53;1.00;;;;;;;24.65;44.85;100964.53;5012859;28;20037;-58
2022/10/31 06:27:28;;;;;;;6.50;1.00;;;;;;;24.60;44.83;100969.75;5013259;28;20037;-57
2022/10/31 06:29:57;;;;;;;1.95;0.80;;;;;;;24.56;44.73;100954.84;5013114;28;20061;-58
2022/10/31 06:32:25;;;;;;;2.40;0.75;;;;;;;24.55;44.95;100958.31;5012764;28;20034;-58
2022/10/31 06:34:54;;;;;;;2.45;0.75;;;;;;;24.52;44.85;100963.53;5012956;28;20113;-58
2022/10/31 06:37:22;;;;;;;2.58;0.75;;;;;;;24.53;44.58;100957.41;5013335;28;20486;-54
2022/10/31 06:39:51;;;;;;;4.25;0.93;;;;;;;24.50;44.51;100950.41;5013175;28;20036;-58
2022/10/31 06:42:19;;;;;;;2.15;0.55;;;;;;;24.50;44.44;100947.78;5014884;28;20026;-58
2022/10/31 06:44:48;;;;;;;2.20;0.90;;;;;;;24.50;44.80;100946.88;4999741;28;20025;-57
2022/10/31 06:47:16;;;;;;;2.95;0.70;;;;;;;24.47;44.77;100944.25;5017091;28;20479;-58
2022/10/31 06:49:45;;;;;;;2.80;0.65;;;;;;;24.46;44.76;100935.50;4999759;28;20422;-58
2022/10/31 06:52:13;;;;;;;2.63;0.77;;;;;;;24.50;44.51;100931.16;5017146;28;20446;-58
2022/10/31 06:54:42;;;;;;;3.72;0.98;;;;;;;24.50;44.60;100918.94;5017044;28;20487;-58
2022/10/31 06:57:10;;;;;;;3.88;0.60;;;;;;;24.48;44.62;100927.66;5016847;28;20026;-58
2022/10/31 06:59:38;;;;;;;6.43;1.00;;;;;;;24.43;44.29;100906.63;5016866;28;20026;-57
2022/10/31 07:02:08;;;;;;;2.08;0.70;;;;;;;24.52;44.49;100925.09;5016987;28;20029;-58
2022/10/31 07:04:36;;;;;;;2.72;1.00;;;;;;;24.50;44.42;100920.66;4999076;28;20026;-58
2022/10/31 07:07:04;;;;;;;2.03;0.68;;;;;;;24.48;44.23;100914.56;5015316;28;20064;-58
2022/10/31 07:09:33;;;;;;;3.20;0.90;;;;;;;24.46;44.40;100909.28;5016672;28;20030;-57
2022/10/31 07:12:01;;;;;;;2.80;0.90;;;;;;;24.45;44.47;100914.53;5016959;28;20022;-56
2022/10/31 07:14:30;;;;;;;2.67;1.00;;;;;;;24.43;44.21;100907.50;5016655;28;20533;-56
2022/10/31 07:16:58;;;;;;;3.88;0.70;;;;;;;24.43;44.54;100909.25;5016884;28;20105;-57
2022/10/31 07:19:27;;;;;;;2.28;0.73;;;;;;;24.47;44.24;100908.41;5016450;28;20018;-56
2022/10/31 07:21:55;;;;;;;3.53;1.30;;;;;;;24.57;43.86;100910.25;5016673;28;20391;-55
2022/10/31 07:24:22;;;;;;;5.05;1.00;;;;;;;24.47;44.21;100900.53;5016285;28;20470;-56
2022/10/31 07:26:50;;;;;;;5.00;1.13;;;;;;;24.31;44.20;100881.19;4995792;28;20062;-49
2022/10/31 07:29:17;;;;;;;1.58;0.75;;;;;;;24.43;44.30;100897.03;4985048;28;20014;-51
2022/10/31 07:31:47;;;;;;;1.70;0.65;;;;;;;24.40;44.29;100891.75;4986566;28;20046;-55
2022/10/31 07:34:14;;;;;;;2.50;0.85;;;;;;;24.52;43.97;100887.47;5000773;28;20357;-58
2022/10/31 07:36:41;;;;;;;2.28;0.68;;;;;;;24.52;44.12;100875.25;4982377;28;20388;-55
2022/10/31 07:39:09;;;;;;;4.72;1.33;;;;;;;24.47;44.33;100882.19;4982421;28;20494;-58
2022/10/31 07:41:36;;;;;;;3.00;0.77;;;;;;;24.45;44.53;100862.94;4989305;28;20026;-56
2022/10/31 07:44:03;;;;;;;2.10;1.02;;;;;;;24.45;44.45;100870.81;4993319;28;20356;-54
2022/10/31 07:46:32;;;;;;;2.92;0.88;;;;;;;24.58;44.00;100870.03;4996461;28;20120;-53
2022/10/31 07:49:00;;;;;;;2.25;0.80;;;;;;;24.49;44.06;100864.72;4996171;28;20519;-49
2022/10/31 07:51:28;;;;;;;2.63;0.90;;;;;;;24.44;44.27;100848.06;4978945;28;20442;-44
2022/10/31 07:53:57;;;;;;;2.35;0.63;;;;;;;24.45;44.37;100848.97;4995704;28;20456;-56
2022/10/31 07:56:25;;;;;;;2.80;0.75;;;;;;;24.46;44.24;100842.84;4996438;28;20088;-56
2022/10/31 07:58:53;;;;;;;2.20;0.70;;;;;;;24.54;44.17;100847.31;4996060;28;20057;-59
2022/10/31 08:01:22;;;;;;;3.53;0.93;;;;;;;24.56;44.08;100848.19;5007221;28;20490;-57
2022/10/31 08:03:50;;;;;;;2.67;0.70;;;;;;;24.59;43.67;100826.34;5015805;28;20029;-56
2022/10/31 08:06:18;;;;;;;2.70;0.70;;;;;;;24.65;43.85;100830.78;4997940;28;20037;-57
2022/10/31 08:08:47;;;;;;;3.03;0.90;;;;;;;24.52;43.86;100819.28;4997727;28;20037;-58
2022/10/31 08:11:15;;;;;;;3.10;0.60;;;;;;;24.55;43.93;100824.56;4976653;28;20126;-58
2022/10/31 08:13:44;;;;;;;2.97;0.55;;;;;;;24.51;44.38;100814.91;4976410;28;20039;-57
2022/10/31 08:16:12;;;;;;;2.35;0.95;;;;;;;24.46;44.39;100809.63;4976705;28;20038;-58
2022/10/31 08:18:41;;;;;;;2.70;0.73;;;;;;;24.55;44.31;100807.09;4976475;28;20030;-58
2022/10/31 08:21:10;;;;;;;2.35;0.80;;;;;;;24.54;44.11;100809.69;4976243;28;20388;-57
2022/10/31 08:23:38;;;;;;;3.88;0.98;;;;;;;24.51;44.22;100807.94;4976251;28;20065;-58
2022/10/31 08:26:05;;;;;;;4.15;1.02;;;;;;;24.47;44.23;100807.91;4976145;28;20046;-58
2022/10/31 08:28:34;;;;;;;4.43;0.80;;;;;;;24.56;43.83;100800.09;4976701;28;20041;-57
2022/10/31 08:31:02;;;;;;;2.95;0.80;;;;;;;24.43;44.59;100791.25;4976220;28;20472;-57
2022/10/31 08:33:29;;;;;;;3.60;0.95;;;;;;;24.40;44.36;100792.09;4975859;28;20031;-58
2022/10/31 08:36:00;;;;;;;3.00;0.60;;;;;;;24.46;44.26;100788.66;4976042;28;20038;-53
2022/10/31 08:38:28;;;;;;;2.58;0.63;;;;;;;24.47;43.97;100768.56;4976136;28;20033;-56
2022/10/31 08:40:57;;;;;;;5.20;1.02;;;;;;;24.53;44.33;100772.13;4976009;28;20061;-57
2022/10/31 08:43:25;;;;;;;2.00;0.70;;;;;;;24.62;44.34;100768.69;4976166;28;20132;-58
2022/10/31 08:45:54;;;;;;;2.10;0.60;;;;;;;24.51;44.43;100772.94;4958331;28;20387;-58
2022/10/31 08:48:23;;;;;;;1.95;0.88;;;;;;;24.54;44.32;100778.22;4975883;28;20034;-58
2022/10/31 08:50:51;;;;;;;8.68;0.90;;;;;;;24.46;44.55;100751.09;4975719;28;20030;-57
2022/10/31 08:53:21;;;;;;;2.15;0.93;;;;;;;24.55;44.41;100753.75;4976006;28;20484;-53
2022/10/31 08:55:49;;;;;;;1.38;0.50;;;;;;;24.51;44.58;100749.34;4975769;28;20054;-59
2022/10/31 08:58:19;;;;;;;2.25;0.88;;;;;;;24.54;44.39;100747.66;4975822;28;20153;-58
2022/10/31 09:00:50;;;;;;;2.38;0.80;;;;;;;24.58;44.00;100746.78;4975525;28;20034;-58
2022/10/31 09:03:22;;;;;;;1.35;0.60;;;;;;;24.58;44.14;100738.91;4975644;28;20038;-58
2022/10/31 09:05:51;;;;;;;3.85;0.82;;;;;;;24.61;44.08;100724.97;4974828;28;20062;-58
2022/10/31 09:08:19;;;;;;;2.33;0.70;;;;;;;24.54;44.01;100718.81;4973985;28;20078;-58
2022/10/31 09:10:46;;;;;;;1.20;0.50;;;;;;;24.56;44.33;100724.03;4975233;28;20495;-58
2022/10/31 09:13:23;;;;;;;1.50;0.77;;;;;;;24.49;44.46;100706.53;4975679;28;20555;-57
2022/10/31 09:15:51;;;;;;;3.20;1.00;;;;;;;24.49;44.49;100701.28;4975581;28;20034;-52
2022/10/31 09:18:21;;;;;;;1.40;0.63;;;;;;;24.57;44.37;100700.44;4971118;28;20021;-51
2022/10/31 09:20:49;;;;;;;1.50;0.50;;;;;;;24.61;44.34;100693.50;4996298;28;20475;-57
2022/10/31 09:23:22;;;;;;;3.53;0.75;;;;;;;24.62;44.27;100700.50;4980508;28;20054;-58
2022/10/31 09:25:52;;;;;;;3.55;0.77;;;;;;;24.68;44.31;100692.63;4989975;28;20054;-56
2022/10/31 09:28:22;;;;;;;2.58;0.73;;;;;;;24.61;44.31;100677.75;4993429;28;20553;-57
2022/10/31 09:30:53;;;;;;;2.33;0.80;;;;;;;24.74;44.20;100676.09;4989490;28;20027;-58
2022/10/31 09:33:22;;;;;;;1.88;0.77;;;;;;;24.77;44.03;100672.63;5001516;28;20080;-56
2022/10/31 09:35:49;;;;;;;3.10;0.77;;;;;;;24.73;44.34;100662.13;4996104;28;20034;-52
2022/10/31 09:38:19;;;;;;;2.17;0.90;;;;;;;24.69;44.40;100673.41;4996531;28;20034;-57
2022/10/31 09:40:50;;;;;;;3.75;0.98;;;;;;;24.79;44.32;100663.88;4999187;28;20026;-45
2022/10/31 09:43:22;;;;;;;2.72;0.80;;;;;;;24.80;44.10;100659.53;4974488;28;20022;-57
2022/10/31 09:46:01;;;;;;;2.00;0.82;;;;;;;24.77;44.27;100652.50;4993021;28;20116;-56
2022/10/31 09:48:33;;;;;;;1.08;0.60;;;;;;;24.79;44.06;100645.53;4995476;28;20030;-56
2022/10/31 09:51:07;;;;;;;1.27;0.82;;;;;;;24.79;44.23;100645.53;4977019;28;20049;-54
2022/10/31 09:53:39;;;;;;;0.70;0.57;;;;;;;24.77;44.31;100633.28;4976565;28;20114;-55
2022/10/31 09:56:20;;;;;;;1.88;0.80;;;;;;;24.73;44.17;100628.00;4960286;28;20033;-45
2022/10/31 09:59:02;;;;;;;4.65;1.27;;;;;;;24.76;44.37;100615.78;4993740;28;20026;-55
2022/10/31 10:01:55;;;;;;;1.35;0.80;;;;;;;24.70;44.42;100591.25;4976498;28;20534;-58
2022/10/31 10:04:45;;;;;;;2.92;0.95;;;;;;;24.72;44.34;100600.03;4976600;28;20041;-57
2022/10/31 10:07:20;;;;;;;1.52;0.77;;;;;;;24.83;44.09;100592.19;4993280;28;20129;-57
2022/10/31 10:09:47;;;;;;;2.25;0.80;;;;;;;24.97;43.77;100587.00;4993545;28;20038;-52
2022/10/31 10:12:28;;;;;;;2.60;0.90;;;;;;;24.89;43.84;100578.22;4976103;28;20076;-58
2022/10/31 10:15:33;;;;;;;2.55;0.77;;;;;;;24.81;43.99;100564.22;4993197;28;20031;-57
2022/10/31 10:18:21;;;;;;;1.70;0.70;;;;;;;24.83;44.20;100570.31;4985815;28;20129;-56
2022/10/31 10:21:05;;;;;;;1.63;0.85;;;;;;;24.79;44.16;100561.56;4987976;28;20553;-58
2022/10/31 10:24:11;;;;;;;1.88;0.77;;;;;;;24.78;44.17;100564.19;4993792;28;20038;-53
2022/10/31 10:26:43;;;;;;;3.10;0.80;;;;;;;24.83;44.16;100559.81;4985729;28;20554;-57
2022/10/31 10:29:11;;;;;;;2.85;1.00;;;;;;;24.85;44.18;100566.84;4993602;28;20034;-57
2022/10/31 10:31:45;;;;;;;1.45;0.93;;;;;;;24.73;44.54;100562.44;4993448;28;20030;-59
2022/10/31 10:34:44;;;;;;;1.88;0.98;;;;;;;24.73;44.20;100551.94;4993372;28;20539;-58
2022/10/31 10:37:30;;;;;;;2.80;1.20;;;;;;;24.84;44.02;100561.56;4993464;28;20077;-59
2022/10/31 10:40:12;;;;;;;5.28;1.27;;;;;;;24.70;44.06;100537.94;5008693;28;20069;-58
2022/10/31 10:48:17;;;;;;;2.95;1.40;;;;;;;24.86;43.90;100560.72;4978411;28;20045;-57
2022/10/31 10:50:50;;;;;;;2.47;1.25;;;;;;;24.82;44.16;100552.84;5008017;28;20110;-57
2022/10/31 10:53:38;;;;;;;3.13;1.38;;;;;;;24.80;44.32;100551.97;4993347;28;20033;-58
2022/10/31 10:56:25;;;;;;;3.00;1.25;;;;;;;24.89;43.71;100546.72;4992608;28;20038;-59
2022/10/31 10:58:56;;;;;;;3.47;1.10;;;;;;;24.89;43.80;100533.63;4992880;28;20455;-58
2022/10/31 11:01:25;;;;;;;4.07;1.20;;;;;;;24.86;44.01;100528.34;4993171;28;20065;-59
2022/10/31 11:03:53;;;;;;;4.18;1.48;;;;;;;24.89;43.83;100531.00;4976108;28;20026;-59
2022/10/31 11:06:25;;;;;;;3.05;1.42;;;;;;;24.81;43.83;100509.13;4993150;28;20034;-58
2022/10/31 11:08:54;;;;;;;3.40;1.50;;;;;;;24.85;43.65;100511.75;4993322;28;20034;-58
2022/10/31 11:11:32;;;;;;;4.05;1.40;;;;;;;24.83;43.77;100502.09;4993144;28;20424;-58
2022/10/31 11:14:07;;;;;;;2.63;1.10;;;;;;;24.87;43.79;100494.28;4993451;28;20046;-58
2022/10/31 11:16:38;;;;;;;2.42;1.40;;;;;;;24.78;43.91;100483.75;4993333;28;20034;-58
2022/10/31 11:19:09;;;;;;;2.50;1.20;;;;;;;24.77;43.60;100482.00;4993402;28;20023;-58
2022/10/31 11:21:38;;;;;;;3.25;1.30;;;;;;;24.84;43.54;100472.38;4993047;28;20026;-58
2022/10/31 11:24:09;;;;;;;3.28;1.30;;;;;;;24.84;43.84;100465.41;4993182;28;20030;-57
2022/10/31 11:26:41;;;;;;;6.50;1.75;;;;;;;24.81;43.67;100448.78;4993027;28;20030;-58
2022/10/31 11:29:16;;;;;;;3.45;1.15;;;;;;;24.73;44.10;100454.03;4996293;28;20121;-58
2022/10/31 11:31:46;;;;;;;6.22;2.15;;;;;;;24.80;43.87;100453.16;4996687;28;20026;-58
2022/10/31 11:34:36;;;;;;;4.45;1.40;;;;;;;24.86;43.54;100445.28;4979621;28;20084;-54
2022/10/31 11:37:13;;;;;;;4.53;1.60;;;;;;;24.76;43.61;100440.03;4997045;28;20077;-58
2022/10/31 11:39:44;;;;;;;3.58;1.63;;;;;;;24.71;44.10;100433.03;4996827;28;20118;-58
2022/10/31 11:42:13;;;;;;;3.40;1.20;;;;;;;24.72;43.85;100424.28;4996563;28;20077;-58
2022/10/31 11:44:44;;;;;;;5.43;1.83;;;;;;;24.79;43.99;100416.44;4996643;28;20112;-57
2022/10/31 11:47:16;;;;;;;3.08;1.25;;;;;;;24.85;43.76;100413.78;4996359;28;20037;-58
2022/10/31 11:49:49;;;;;;;4.13;1.50;;;;;;;24.81;43.85;100402.44;4996426;28;20034;-57
2022/10/31 11:52:25;;;;;;;5.03;2.03;;;;;;;24.87;43.70;100398.94;4996385;28;20061;-58